Putney, VT (05346)

8:02 PM EDT on October 30, 2014 (GMT -0400)
Green Mountain Orchard | Change Station
CLOSE
Current Station
Personal Weather Station
Location: Putney, VT
Elevation: 715 ft
Nearby Weather Stations

Elev 715 ft 42.99 °N, 72.54 °W | Updated 10 seconds ago

Overcast
Overcast
43.3 °F
Feels Like 43 °F
N
0.0
Wind Variable Wind from West
Gusts 0.0 mph

Today
High -- | Low -- °F
--% Chance of Precip.
Yesterday
High -- | Low -- °F
Precip. -- in
7:22 AM 5:44 PM
Waxing Crescent, 49% visible
Pressure 29.97 in
Visibility 10.0 miles
Clouds Overcast 5500 ft
Windchill 43 °F
Dew Point 37 °F
Humidity 77%
Rainfall 0.00 in
Snow Depth Not available.
UV 0 out of 12
Pollen .20 out of 12
Air Quality Not available.
Flu Activity Not available.
METAR KEEN 302355Z AUTO 00000KT 10SM OVC055 07/01 A2997 RMK AO1 10120 20070 401200010 52010

More Conditions Fewer Conditions

Pressure 29.97 in
Visibility 10.0 miles
Clouds Overcast 5500 ft
Windchill 43 °F
Dew Point 37 °F
Humidity 77%
Rainfall 0.00 in
Snow Depth Not available.
UV 0 out of 12
Pollen .20 out of 12
Air Quality Not available.
Flu Activity Not available.
METAR KEEN 302355Z AUTO 00000KT 10SM OVC055 07/01 A2997 RMK AO1 10120 20070 401200010 52010

More Conditions Fewer Conditions

10-Day Weather Forecast

Almanac

Astronomy

Oct. 30, 2014 Rise Set
Actual Time
Civil Twilight
Nautical Twilight
Astronomical Twilight
Moon
Length of Visible Light
Length of Day
Tomorrow will be .
, % of the Moon is Illuminated

Today's Extremes

State Highs State Lows

Community

WunderPhotos

Upload Photos

1,766,501 photos uploaded!

WunderBlogs® & News

Nearby

Air Quality

  Air Quality AQ Index Pollutant
Not available.

Snow Depth

Station Depth Elevation

Earthquake Activity

City Distance Mag. Time & Date
Minimum magnitude displayed is 2.5.

Coastal Water Temperatures

Place Temperature

Nearby Weather Stations